createdAt,value
2019-02-03T00:00:32.914Z,49.30
2019-02-03T00:03:02.499Z,50.20
2019-02-03T00:05:32.289Z,46.53
2019-02-03T00:08:02.282Z,48.23
2019-02-03T00:10:31.847Z,48.23
2019-02-03T00:13:01.445Z,49.63
2019-02-03T00:15:30.983Z,47.38
2019-02-03T00:18:00.573Z,49.38
2019-02-03T00:20:30.148Z,46.40
2019-02-03T00:22:59.695Z,47.40
2019-02-03T00:25:29.280Z,46.92
2019-02-03T00:27:58.779Z,48.73
2019-02-03T00:30:28.486Z,49.35
2019-02-03T00:32:58.195Z,47.62
2019-02-03T00:35:27.693Z,49.58
2019-02-03T00:37:57.326Z,48.50
2019-02-03T00:40:26.987Z,49.75
2019-02-03T00:42:56.698Z,49.20
2019-02-03T00:45:26.823Z,48.00
2019-02-03T00:47:56.356Z,48.63
2019-02-03T00:50:25.905Z,46.20
2019-02-03T00:52:56.025Z,48.25
2019-02-03T00:55:25.671Z,49.53
2019-02-03T00:57:55.461Z,47.67
2019-02-03T01:00:25.255Z,46.90
2019-02-03T01:02:54.804Z,47.13
2019-02-03T01:05:24.459Z,47.93
2019-02-03T01:07:54.013Z,48.38
2019-02-03T01:10:24.563Z,50.10
2019-02-03T01:12:54.187Z,48.13
2019-02-03T01:15:23.926Z,49.15
2019-02-03T01:17:53.493Z,48.50
2019-02-03T01:20:25.855Z,49.10
2019-02-03T01:22:55.458Z,49.85
2019-02-03T01:25:25.031Z,48.73
2019-02-03T01:27:54.573Z,48.45
2019-02-03T01:30:25.634Z,49.38
2019-02-03T01:32:55.154Z,47.40
2019-02-03T01:35:24.643Z,47.23
2019-02-03T01:37:54.630Z,47.62
2019-02-03T01:40:24.363Z,49.60
2019-02-03T01:42:57.962Z,49.20
2019-02-03T01:45:29.656Z,51.48
2019-02-03T01:47:59.166Z,48.55
2019-02-03T01:50:29.460Z,47.13
2019-02-03T01:52:59.011Z,48.02
2019-02-03T01:55:29.045Z,49.05
2019-02-03T01:57:58.562Z,47.48
2019-02-03T02:00:30.526Z,47.75
2019-02-03T02:03:00.669Z,47.88
2019-02-03T02:05:30.252Z,48.08
2019-02-03T02:07:59.857Z,49.45
2019-02-03T02:10:30.419Z,48.78
2019-02-03T02:13:00.434Z,49.53
2019-02-03T02:15:30.582Z,49.70
2019-02-03T02:18:00.096Z,49.98
2019-02-03T02:20:30.853Z,49.25
2019-02-03T02:23:00.780Z,50.10
2019-02-03T02:25:30.281Z,48.50
2019-02-03T02:27:59.795Z,49.65
2019-02-03T02:30:29.500Z,51.25
2019-02-03T02:32:59.098Z,46.18
2019-02-03T02:35:28.815Z,48.48
2019-02-03T02:38:06.273Z,48.20
2019-02-03T02:40:29.587Z,49.45
2019-02-03T02:42:59.675Z,47.60
2019-02-03T02:45:31.438Z,48.42
2019-02-03T02:48:00.938Z,48.50
2019-02-03T02:50:35.107Z,50.98
2019-02-03T02:53:05.177Z,48.40
2019-02-03T02:55:34.880Z,48.80
2019-02-03T02:58:04.527Z,45.88
2019-02-03T03:00:34.328Z,48.40
2019-02-03T03:03:04.042Z,47.90
2019-02-03T03:05:33.554Z,46.13
2019-02-03T03:08:03.728Z,46.65
2019-02-03T03:10:34.219Z,48.33
2019-02-03T03:13:03.801Z,47.45
2019-02-03T03:15:33.340Z,47.62
2019-02-03T03:18:02.863Z,49.30
2019-02-03T03:20:32.428Z,46.00
2019-02-03T03:23:02.303Z,46.60
2019-02-03T03:25:31.874Z,46.08
2019-02-03T03:28:01.377Z,45.35
2019-02-03T03:30:31.054Z,46.63
2019-02-03T03:33:00.632Z,45.85
2019-02-03T03:35:34.017Z,45.67
2019-02-03T03:38:02.223Z,44.08
2019-02-03T03:40:31.857Z,44.05
2019-02-03T03:43:01.364Z,43.10
2019-02-03T03:45:31.036Z,43.68
2019-02-03T03:48:01.020Z,43.45
2019-02-03T03:50:30.527Z,42.10
2019-02-03T03:53:00.085Z,42.05
2019-02-03T03:55:29.601Z,41.88
2019-02-03T03:57:59.115Z,42.30
2019-02-03T04:00:28.836Z,42.25
2019-02-03T04:02:58.509Z,40.52
2019-02-03T04:05:28.078Z,42.80
2019-02-03T04:07:57.792Z,41.95
2019-02-03T04:10:27.308Z,44.25
2019-02-03T04:12:56.823Z,39.27
2019-02-03T04:15:26.875Z,41.15
2019-02-03T04:17:56.492Z,37.93
2019-02-03T04:20:31.541Z,41.35
2019-02-03T04:23:01.275Z,42.27
2019-02-03T04:25:30.879Z,39.30
2019-02-03T04:28:00.962Z,39.88
2019-02-03T04:30:30.763Z,40.08
2019-02-03T04:33:00.422Z,38.50
2019-02-03T04:35:30.108Z,38.55
2019-02-03T04:37:59.791Z,41.70
2019-02-03T04:40:29.669Z,41.08
2019-02-03T04:42:59.395Z,40.30
2019-02-03T04:45:29.161Z,36.95
2019-02-03T04:47:59.240Z,38.45
2019-02-03T04:50:28.904Z,41.45
2019-02-03T04:52:58.441Z,36.60
2019-02-03T04:55:28.024Z,37.20
2019-02-03T04:57:57.679Z,39.83
2019-02-03T05:00:27.590Z,38.10
2019-02-03T05:02:57.200Z,39.40
2019-02-03T05:05:27.179Z,37.45
2019-02-03T05:07:58.236Z,38.48
2019-02-03T05:10:27.897Z,38.65
2019-02-03T05:12:57.540Z,37.45
2019-02-03T05:15:27.232Z,36.30
2019-02-03T05:17:56.891Z,36.73
2019-02-03T05:20:28.147Z,37.42
2019-02-03T05:22:57.863Z,37.60
2019-02-03T05:25:27.354Z,34.83
2019-02-03T05:28:16.508Z,33.83
2019-02-03T05:30:46.667Z,34.50
2019-02-03T05:33:16.497Z,33.33
2019-02-03T05:35:46.496Z,35.20
2019-02-03T05:38:16.177Z,33.85
2019-02-03T05:40:45.873Z,33.70
2019-02-03T05:43:15.717Z,33.92
2019-02-03T05:45:45.401Z,34.10
2019-02-03T05:48:18.222Z,34.75
2019-02-03T05:50:48.202Z,32.73
2019-02-03T05:53:17.721Z,35.20
2019-02-03T05:55:47.410Z,33.98
2019-02-03T05:58:17.156Z,31.15
2019-02-03T06:00:46.830Z,33.35
2019-02-03T06:03:16.499Z,32.53
2019-02-03T06:05:46.068Z,33.45
2019-02-03T06:08:15.682Z,34.23
2019-02-03T06:10:45.604Z,33.30
2019-02-03T06:13:15.439Z,32.30
2019-02-03T06:15:44.995Z,33.30
2019-02-03T06:18:14.562Z,34.10
2019-02-03T06:20:46.522Z,32.88
2019-02-03T06:23:16.767Z,32.00
2019-02-03T06:25:46.598Z,31.07
2019-02-03T06:28:19.406Z,30.37
2019-02-03T06:31:05.434Z,34.18
2019-02-03T06:33:35.243Z,31.87
2019-02-03T06:36:06.396Z,31.52
2019-02-03T06:38:36.032Z,30.97
2019-02-03T06:41:08.707Z,31.35
2019-02-03T06:43:38.215Z,33.25
2019-02-03T06:46:09.977Z,31.55
2019-02-03T06:48:39.984Z,30.68
2019-02-03T06:51:09.562Z,29.18
2019-02-03T06:53:40.143Z,30.45
2019-02-03T06:56:10.035Z,28.90
2019-02-03T06:58:40.111Z,29.23
2019-02-03T07:01:09.760Z,27.98
2019-02-03T07:03:39.274Z,28.42
2019-02-03T07:06:08.847Z,30.52
2019-02-03T07:08:38.423Z,28.10
2019-02-03T07:11:09.316Z,27.02
2019-02-03T07:13:38.819Z,26.65
2019-02-03T07:16:08.398Z,25.62
2019-02-03T07:18:38.187Z,25.08
2019-02-03T07:21:07.752Z,24.85
2019-02-03T07:23:37.259Z,25.40
2019-02-03T07:26:07.304Z,26.02
2019-02-03T07:28:36.823Z,24.45
2019-02-03T07:31:06.463Z,24.05
2019-02-03T07:33:36.067Z,24.45
2019-02-03T07:36:05.819Z,24.00
2019-02-03T07:38:36.399Z,22.82
2019-02-03T07:41:06.161Z,23.05
2019-02-03T07:43:35.691Z,23.57
2019-02-03T07:46:05.809Z,23.55
2019-02-03T07:48:35.347Z,23.70
2019-02-03T07:51:05.381Z,23.12
2019-02-03T07:53:34.890Z,23.30
2019-02-03T07:56:04.878Z,23.67
2019-02-03T07:58:34.389Z,24.27
2019-02-03T08:01:04.131Z,22.70
2019-02-03T08:03:33.785Z,22.85
2019-02-03T08:06:04.171Z,21.95
2019-02-03T08:08:33.871Z,22.00
2019-02-03T08:11:04.739Z,22.02
2019-02-03T08:13:34.839Z,21.80
2019-02-03T08:16:04.829Z,22.77
2019-02-03T08:18:34.845Z,21.42
2019-02-03T08:21:04.562Z,21.05
2019-02-03T08:23:34.224Z,22.07
2019-02-03T08:26:03.894Z,20.92
2019-02-03T08:28:33.388Z,20.75
2019-02-03T08:31:02.892Z,21.30
2019-02-03T08:33:32.910Z,21.00
2019-02-03T08:36:02.561Z,20.27
2019-02-03T08:38:32.053Z,21.75
2019-02-03T08:41:01.666Z,21.10
2019-02-03T08:43:31.167Z,21.23
2019-02-03T08:46:01.190Z,21.73
2019-02-03T08:48:30.918Z,20.00
2019-02-03T08:51:00.485Z,21.65
2019-02-03T08:53:29.968Z,20.82
2019-02-03T08:55:59.506Z,21.10
2019-02-03T08:58:29.084Z,21.37
2019-02-03T09:00:59.062Z,19.62
2019-02-03T09:03:28.902Z,21.10
2019-02-03T09:05:58.556Z,21.17
2019-02-03T09:08:28.216Z,20.57
2019-02-03T09:10:57.764Z,20.92
2019-02-03T09:13:27.857Z,21.27
2019-02-03T09:15:57.425Z,19.95
2019-02-03T09:18:26.965Z,20.65
2019-02-03T09:20:56.460Z,19.10
2019-02-03T09:23:26.046Z,20.40
2019-02-03T09:25:56.255Z,19.57
2019-02-03T09:28:25.764Z,19.30
2019-02-03T09:30:55.336Z,20.08
2019-02-03T09:33:24.885Z,18.95
2019-02-03T09:35:54.518Z,20.02
2019-02-03T09:38:24.067Z,20.17
2019-02-03T09:41:00.088Z,21.45
2019-02-03T09:43:25.527Z,19.98
2019-02-03T09:45:55.150Z,20.90
2019-02-03T09:48:24.827Z,19.45
2019-02-03T09:50:54.340Z,19.37
2019-02-03T09:53:23.850Z,19.05
2019-02-03T09:55:54.021Z,19.82
2019-02-03T09:58:23.537Z,18.77
2019-02-03T10:00:53.134Z,19.37
2019-02-03T10:03:22.742Z,20.85
2019-02-03T10:05:52.258Z,19.85
2019-02-03T10:08:22.422Z,18.62
2019-02-03T10:10:53.200Z,18.37
2019-02-03T10:13:22.866Z,19.15
2019-02-03T10:15:52.428Z,18.40
2019-02-03T10:18:22.015Z,19.07
2019-02-03T10:20:51.678Z,19.60
2019-02-03T10:23:21.191Z,19.43
2019-02-03T10:25:50.742Z,20.57
2019-02-03T10:28:20.258Z,20.63
2019-02-03T10:30:49.808Z,20.80
2019-02-03T10:33:19.631Z,19.73
2019-02-03T10:35:49.788Z,21.40
2019-02-03T10:38:19.304Z,19.80
2019-02-03T10:40:48.910Z,20.67
2019-02-03T10:43:18.422Z,19.80
2019-02-03T10:45:48.011Z,20.03
2019-02-03T10:48:17.574Z,18.97
2019-02-03T10:50:47.169Z,19.83
2019-02-03T10:53:16.766Z,18.90
2019-02-03T10:55:46.467Z,18.53
2019-02-03T10:58:15.990Z,19.60
2019-02-03T11:00:46.032Z,17.40
2019-02-03T11:03:15.663Z,17.90
2019-02-03T11:05:50.071Z,18.17
2019-02-03T11:08:19.790Z,17.13
2019-02-03T11:10:49.763Z,17.53
2019-02-03T11:13:19.445Z,16.53
2019-02-03T11:15:49.022Z,17.60
2019-02-03T11:18:18.978Z,15.87
2019-02-03T11:20:48.647Z,16.37
2019-02-03T11:23:18.265Z,16.10
2019-02-03T11:25:48.166Z,15.13
2019-02-03T11:28:17.742Z,14.37
2019-02-03T11:30:47.319Z,14.10
2019-02-03T11:33:17.910Z,13.73
2019-02-03T11:35:47.594Z,13.00
2019-02-03T11:38:17.180Z,13.10
2019-02-03T11:40:46.812Z,14.10
2019-02-03T11:43:16.414Z,14.00
2019-02-03T11:45:45.998Z,13.53
2019-02-03T11:48:20.102Z,13.57
2019-02-03T11:50:51.049Z,12.97
2019-02-03T11:53:26.654Z,11.60
2019-02-03T11:55:56.791Z,12.37
2019-02-03T11:58:26.475Z,11.30
2019-02-03T12:00:56.703Z,11.20
2019-02-03T12:03:26.368Z,12.07
2019-02-03T12:05:56.188Z,12.17
2019-02-03T12:08:26.136Z,11.00
2019-02-03T12:10:55.791Z,10.30
2019-02-03T12:13:25.346Z,9.90
2019-02-03T12:15:55.092Z,9.03
2019-02-03T12:18:24.728Z,8.60
2019-02-03T12:20:54.285Z,10.30
2019-02-03T12:23:23.980Z,8.93
2019-02-03T12:25:53.811Z,9.93
2019-02-03T12:28:23.400Z,9.27
2019-02-03T12:30:53.559Z,9.83
2019-02-03T12:33:23.132Z,9.00
2019-02-03T12:35:52.653Z,8.60
2019-02-03T12:38:22.774Z,13.17
2019-02-03T12:40:52.454Z,7.87
2019-02-03T12:43:21.992Z,8.70
2019-02-03T12:45:51.569Z,7.10
2019-02-03T12:48:21.079Z,7.60
2019-02-03T12:50:50.698Z,8.50
2019-02-03T12:53:21.288Z,8.13
2019-02-03T12:55:50.984Z,8.17
2019-02-03T12:58:20.567Z,7.73
2019-02-03T13:00:50.195Z,7.37
2019-02-03T13:03:19.798Z,7.30
2019-02-03T13:05:49.652Z,7.53
2019-02-03T13:08:19.356Z,8.80
2019-02-03T13:10:49.192Z,8.00
2019-02-03T13:13:18.682Z,7.13
2019-02-03T13:15:54.424Z,7.47
2019-02-03T13:18:24.074Z,7.53
2019-02-03T13:20:53.574Z,7.47
2019-02-03T13:23:23.196Z,8.30
2019-02-03T13:25:53.106Z,7.13
2019-02-03T13:28:22.740Z,6.97
2019-02-03T13:30:52.865Z,8.00
2019-02-03T13:33:22.388Z,8.00
2019-02-03T13:35:51.964Z,7.20
2019-02-03T13:38:21.792Z,7.93
2019-02-03T13:40:51.446Z,6.73
2019-02-03T13:43:22.766Z,7.50
2019-02-03T13:45:52.381Z,6.87
2019-02-03T13:48:21.903Z,6.83
2019-02-03T13:50:54.558Z,7.07
2019-02-03T13:53:24.009Z,7.20
2019-02-03T13:55:54.253Z,6.60
2019-02-03T13:58:36.039Z,7.03
2019-02-03T14:00:55.298Z,7.10
2019-02-03T14:03:24.817Z,7.53
2019-02-03T14:05:54.425Z,7.70
2019-02-03T14:08:24.941Z,7.37
2019-02-03T14:10:54.461Z,7.60
2019-02-03T14:13:23.956Z,7.03
2019-02-03T14:15:53.567Z,8.37
2019-02-03T14:18:23.151Z,6.67
2019-02-03T14:20:52.794Z,6.50
2019-02-03T14:23:22.359Z,7.00
2019-02-03T14:25:52.105Z,6.10
2019-02-03T14:28:21.609Z,6.13
2019-02-03T14:30:53.332Z,6.20
2019-02-03T14:33:22.965Z,5.90
2019-02-03T14:35:52.619Z,5.90
2019-02-03T14:38:22.238Z,6.60
2019-02-03T14:40:51.962Z,5.97
2019-02-03T14:43:21.944Z,6.43
2019-02-03T14:45:51.553Z,5.80
2019-02-03T14:48:21.743Z,5.60
2019-02-03T14:50:51.247Z,6.00
2019-02-03T14:53:21.015Z,5.80
2019-02-03T14:55:51.994Z,5.70
2019-02-03T14:58:22.036Z,6.10
2019-02-03T15:00:53.010Z,5.93
2019-02-03T15:03:22.609Z,5.67
2019-02-03T15:05:52.466Z,5.57
2019-02-03T15:08:23.212Z,5.17
2019-02-03T15:10:52.879Z,5.97
2019-02-03T15:13:22.523Z,5.87
2019-02-03T15:15:52.223Z,6.10
2019-02-03T15:18:21.805Z,6.03
2019-02-03T15:20:51.411Z,8.67
2019-02-03T15:23:21.118Z,6.07
2019-02-03T15:25:50.704Z,6.07
2019-02-03T15:28:20.221Z,7.43
2019-02-03T15:30:50.452Z,7.20
2019-02-03T15:33:20.113Z,7.23
2019-02-03T15:35:49.774Z,7.40
2019-02-03T15:38:19.498Z,6.90
2019-02-03T15:40:49.170Z,7.73
2019-02-03T15:43:25.673Z,8.10
2019-02-03T15:45:50.020Z,7.30
2019-02-03T15:48:19.539Z,8.33
2019-02-03T15:50:49.092Z,9.10
2019-02-03T15:53:19.566Z,8.17
2019-02-03T15:55:49.253Z,8.20
2019-02-03T15:58:18.869Z,8.37
2019-02-03T16:00:52.314Z,7.93
2019-02-03T16:03:21.980Z,8.80
2019-02-03T16:05:52.066Z,8.40
2019-02-03T16:08:23.527Z,8.40
2019-02-03T16:10:53.174Z,10.50
2019-02-03T16:13:22.696Z,9.20
2019-02-03T16:15:52.325Z,8.00
2019-02-03T16:18:21.814Z,8.30
2019-02-03T16:20:51.497Z,9.57
2019-02-03T16:23:21.104Z,8.77
2019-02-03T16:25:51.142Z,9.27
2019-02-03T16:28:21.023Z,9.63
2019-02-03T16:30:50.681Z,9.53
2019-02-03T16:33:20.257Z,9.20
2019-02-03T16:35:49.872Z,9.30
2019-02-03T16:38:23.137Z,9.23
2019-02-03T16:40:50.803Z,10.30
2019-02-03T16:43:20.964Z,9.28
2019-02-03T16:45:50.504Z,8.40
2019-02-03T16:48:20.106Z,8.90
2019-02-03T16:50:48.830Z,7.80
2019-02-03T16:53:18.667Z,8.53
2019-02-03T16:55:48.271Z,10.38
2019-02-03T16:58:17.875Z,9.20
2019-02-03T17:00:47.717Z,9.65
2019-02-03T17:03:18.386Z,10.10
2019-02-03T17:05:48.028Z,10.23
2019-02-03T17:08:17.639Z,10.40
2019-02-03T17:10:47.210Z,9.70
2019-02-03T17:13:16.746Z,9.85
2019-02-03T17:15:51.681Z,9.30
2019-02-03T17:18:21.338Z,9.70
2019-02-03T17:21:01.453Z,9.63
2019-02-03T17:23:22.200Z,8.95
2019-02-03T17:25:59.042Z,10.20
2019-02-03T17:28:28.586Z,9.45
2019-02-03T17:30:58.156Z,9.73
2019-02-03T17:33:27.728Z,10.82
2019-02-03T17:35:57.765Z,11.45
2019-02-03T17:38:27.326Z,10.90
2019-02-03T17:40:57.340Z,10.63
2019-02-03T17:43:26.964Z,10.85
2019-02-03T17:45:56.591Z,12.53
2019-02-03T17:48:26.218Z,12.37
2019-02-03T17:50:55.752Z,12.90
2019-02-03T17:53:25.548Z,11.35
2019-02-03T17:55:55.151Z,13.03
2019-02-03T17:58:24.966Z,13.15
2019-02-03T18:00:58.916Z,13.25
2019-02-03T18:03:28.538Z,13.10
2019-02-03T18:05:59.110Z,16.37
2019-02-03T18:08:28.625Z,15.55
2019-02-03T18:10:58.192Z,14.35
2019-02-03T18:13:29.132Z,14.33
2019-02-03T18:15:58.831Z,16.02
2019-02-03T18:18:28.403Z,14.68
2019-02-03T18:20:57.912Z,13.50
2019-02-03T18:23:27.421Z,15.15
2019-02-03T18:25:57.078Z,17.50
2019-02-03T18:28:26.636Z,15.93
2019-02-03T18:30:56.358Z,15.78
2019-02-03T18:33:26.417Z,15.10
2019-02-03T18:35:56.163Z,14.95
2019-02-03T18:38:25.732Z,13.65
2019-02-03T18:40:55.438Z,14.25
2019-02-03T18:43:25.119Z,15.13
2019-02-03T18:45:54.708Z,14.90
2019-02-03T18:48:24.256Z,14.80
2019-02-03T18:50:53.989Z,14.30
2019-02-03T18:53:23.579Z,19.10
2019-02-03T18:55:53.244Z,15.18
2019-02-03T18:58:22.903Z,13.65
2019-02-03T19:00:53.047Z,14.23
2019-02-03T19:03:22.688Z,14.68
2019-02-03T19:05:52.303Z,13.43
2019-02-03T19:08:21.902Z,15.48
2019-02-03T19:10:51.472Z,14.78
2019-02-03T19:13:21.009Z,12.80
2019-02-03T19:15:52.769Z,14.15
2019-02-03T19:18:22.151Z,13.30
2019-02-03T19:20:51.810Z,14.63
2019-02-03T19:23:21.331Z,14.68
2019-02-03T19:25:50.829Z,15.55
2019-02-03T19:28:20.461Z,16.05
2019-02-03T19:30:50.037Z,16.15
2019-02-03T19:33:19.547Z,20.27
2019-02-03T19:35:49.239Z,18.73
2019-02-03T19:38:18.804Z,15.00
2019-02-03T19:40:48.506Z,14.00
2019-02-03T19:43:18.522Z,13.08
2019-02-03T19:45:48.042Z,12.63
2019-02-03T19:48:17.580Z,12.98
2019-02-03T19:50:47.243Z,12.88
2019-02-03T19:53:16.796Z,15.58
2019-02-03T19:55:46.802Z,12.82
2019-02-03T19:58:16.575Z,13.58
2019-02-03T20:00:47.223Z,14.10
2019-02-03T20:03:16.808Z,13.93
2019-02-03T20:05:46.521Z,14.05
2019-02-03T20:08:16.634Z,12.43
2019-02-03T20:10:46.219Z,13.80
2019-02-03T20:13:16.248Z,14.75
2019-02-03T20:15:46.034Z,14.45
2019-02-03T20:18:15.571Z,14.20
2019-02-03T20:20:45.117Z,13.40
2019-02-03T20:23:14.800Z,14.55
2019-02-03T20:25:44.299Z,14.60
2019-02-03T20:28:13.987Z,14.35
2019-02-03T20:30:43.587Z,19.17
2019-02-03T20:33:13.181Z,17.45
2019-02-03T20:35:42.820Z,15.18
2019-02-03T20:38:12.589Z,16.02
2019-02-03T20:40:44.441Z,15.65
2019-02-03T20:43:14.068Z,14.70
2019-02-03T20:45:49.597Z,14.28
2019-02-03T20:48:14.978Z,13.68
2019-02-03T20:50:44.835Z,13.40
2019-02-03T20:53:14.455Z,14.07
2019-02-03T20:55:44.045Z,13.53
2019-02-03T20:58:13.597Z,11.48
2019-02-03T21:00:43.437Z,10.13
2019-02-03T21:03:13.526Z,10.85
2019-02-03T21:05:43.134Z,8.88
2019-02-03T21:08:12.697Z,8.20
2019-02-03T21:10:42.295Z,8.20
2019-02-03T21:13:12.285Z,7.15
2019-02-03T21:15:41.801Z,7.45
2019-02-03T21:18:11.843Z,7.53
2019-02-03T21:20:41.508Z,8.45
2019-02-03T21:23:11.176Z,8.65
2019-02-03T21:25:40.782Z,7.85
2019-02-03T21:28:10.884Z,7.72
2019-02-03T21:30:40.848Z,7.50
2019-02-03T21:33:10.559Z,5.28
2019-02-03T21:35:40.355Z,6.08
2019-02-03T21:38:09.976Z,5.25
2019-02-03T21:40:39.561Z,6.10
2019-02-03T21:43:09.163Z,6.40
2019-02-03T21:45:44.726Z,5.75
2019-02-03T21:48:10.346Z,5.25
2019-02-03T21:50:39.951Z,5.72
2019-02-03T21:53:09.609Z,5.55
2019-02-03T21:55:39.199Z,5.00
2019-02-03T21:58:09.452Z,5.15
2019-02-03T22:00:39.103Z,5.15
2019-02-03T22:03:08.741Z,4.60
2019-02-03T22:05:38.371Z,5.03
2019-02-03T22:08:08.422Z,4.90
2019-02-03T22:10:38.973Z,5.03
2019-02-03T22:13:08.691Z,5.20
2019-02-03T22:15:38.270Z,6.75
2019-02-03T22:18:08.006Z,4.83
2019-02-03T22:20:37.858Z,5.33
2019-02-03T22:23:07.435Z,4.65
2019-02-03T22:25:37.415Z,5.40
2019-02-03T22:28:07.097Z,4.15
2019-02-03T22:30:39.121Z,4.28
2019-02-03T22:33:08.915Z,4.53
2019-02-03T22:35:38.771Z,3.87
2019-02-03T22:38:09.482Z,4.05
2019-02-03T22:40:39.064Z,4.35
2019-02-03T22:43:08.661Z,5.22
2019-02-03T22:45:38.166Z,4.40
2019-02-03T22:48:07.892Z,4.47
2019-02-03T22:50:38.061Z,4.65
2019-02-03T22:53:07.708Z,4.50
2019-02-03T22:55:37.319Z,4.80
2019-02-03T22:58:07.200Z,6.12
2019-02-03T23:00:51.648Z,5.80
2019-02-03T23:03:28.307Z,6.70
2019-02-03T23:05:58.561Z,6.97
2019-02-03T23:08:28.128Z,7.87
2019-02-03T23:10:58.203Z,7.65
2019-02-03T23:13:27.680Z,7.17
2019-02-03T23:15:57.271Z,6.65
2019-02-03T23:18:26.856Z,7.85
2019-02-03T23:20:56.439Z,7.15
2019-02-03T23:23:26.135Z,7.25
2019-02-03T23:25:55.970Z,7.40
2019-02-03T23:28:26.126Z,7.20
2019-02-03T23:30:55.784Z,8.13
2019-02-03T23:33:25.384Z,8.18
2019-02-03T23:35:54.980Z,7.55
2019-02-03T23:38:24.482Z,8.08
2019-02-03T23:40:54.832Z,8.50
2019-02-03T23:43:24.421Z,7.85
2019-02-03T23:45:53.998Z,7.62
2019-02-03T23:48:23.611Z,7.10
2019-02-03T23:50:53.195Z,7.83
2019-02-03T23:53:24.250Z,6.83
2019-02-03T23:55:54.693Z,7.20
2019-02-03T23:58:24.215Z,7.87
